Terminal Aerodrome Forecast
Issued by NWS Charleston, WV

Current Version | Previous Version | Text Only | Print | Product List | Glossary Off
Versions: 1 2 3 4 5 6 7 8 9 10 11 12 13 14 15 16 17 18 19 20 21 22 23 24 25 26 27

000
FTUS41 KRLX 290906 AAA
TAFCRW
TAF AMD
KCRW 290906Z 2909/3006 11004KT P6SM BKN035
      TEMPO 2909/2913 BKN025
     FM291700 35004KT P6SM SHRA VCTS OVC035CB
     FM292300 VRB03KT 6SM SHRA VCTS OVC025CB
     FM300300 VRB03KT 5SM SHRA OVC015=

USA.gov is the U.S. government's official web portal to all federal, state and local government web resources and services.